Time;durP1;ratioP1;P1;durP2;ratioP2;P2;SDS_P1;SDS_P2;PMS_P1;PMS_P2;Temp;Humidity;BMP_temperature;BMP_pressure;BME280_temperature;BME280_humidity;BME280_pressure;Samples;Min_cycle;Max_cycle;Signal;HPM_P1;HPM_P2
2023/03/14 00:00:34;;;;;;;24.65;3.17;;;8.30;99.90;;;;;;5067954;28;20063;-38
2023/03/14 00:02:59;;;;;;;25.90;3.03;;;7.90;99.90;;;;;;5067477;28;20047;-38
2023/03/14 00:05:25;;;;;;;35.50;4.38;;;8.80;99.90;;;;;;5066774;28;20028;-37
2023/03/14 00:07:51;;;;;;;21.35;2.65;;;8.40;99.90;;;;;;5067600;28;20494;-38
2023/03/14 00:10:17;;;;;;;17.77;3.22;;;8.60;99.90;;;;;;5067635;28;20040;-37
2023/03/14 00:12:43;;;;;;;21.27;3.40;;;8.50;99.90;;;;;;5067800;28;20036;-38
2023/03/14 00:15:10;;;;;;;16.70;2.85;;;8.70;99.90;;;;;;5067936;28;20099;-38
2023/03/14 00:17:36;;;;;;;24.95;3.60;;;8.20;99.90;;;;;;5067368;28;20478;-38
2023/03/14 00:20:10;;;;;;;18.25;3.17;;;8.30;99.90;;;;;;5067504;28;20048;-37
2023/03/14 00:22:38;;;;;;;20.30;2.67;;;8.30;99.90;;;;;;5067664;28;20374;-37
2023/03/14 00:25:05;;;;;;;25.75;4.15;;;8.40;99.90;;;;;;5067471;28;20092;-37
2023/03/14 00:27:31;;;;;;;19.05;3.30;;;8.50;99.90;;;;;;5067560;28;20398;-37
2023/03/14 00:29:57;;;;;;;24.17;3.35;;;8.60;99.90;;;;;;5067591;28;20112;-37
2023/03/14 00:32:23;;;;;;;21.20;3.85;;;9.00;99.90;;;;;;5067811;28;20178;-37
2023/03/14 00:34:49;;;;;;;18.65;2.65;;;9.10;99.90;;;;;;5067545;28;20045;-37
2023/03/14 00:37:15;;;;;;;21.40;2.42;;;9.10;99.90;;;;;;5067683;28;20518;-37
2023/03/14 00:39:41;;;;;;;17.50;2.45;;;8.80;99.90;;;;;;5067616;28;20063;-37
2023/03/14 00:42:06;;;;;;;16.10;3.13;;;9.20;99.90;;;;;;5048687;28;20047;-37
2023/03/14 00:44:32;;;;;;;19.42;3.22;;;9.20;99.90;;;;;;5067338;28;20040;-37
2023/03/14 00:46:58;;;;;;;23.83;3.83;;;9.10;99.90;;;;;;5066438;28;20155;-38
2023/03/14 00:49:24;;;;;;;19.40;3.28;;;7.70;99.90;;;;;;5066452;28;20534;-37
2023/03/14 00:51:51;;;;;;;14.60;2.35;;;9.50;99.90;;;;;;5066604;28;20052;-37
2023/03/14 00:54:20;;;;;;;19.90;4.22;;;9.00;99.90;;;;;;5066852;28;20449;-37
2023/03/14 00:56:46;;;;;;;19.40;3.08;;;8.50;99.90;;;;;;5066036;28;20689;-37
2023/03/14 00:59:11;;;;;;;21.30;2.65;;;8.90;99.90;;;;;;5066899;28;20044;-38
2023/03/14 01:01:38;;;;;;;21.05;3.03;;;9.20;99.90;;;;;;5066840;28;20036;-37
2023/03/14 01:04:04;;;;;;;14.07;3.75;;;9.10;99.90;;;;;;5066693;28;20040;-37
2023/03/14 01:06:30;;;;;;;16.05;2.70;;;9.10;99.90;;;;;;5066717;28;20040;-38
2023/03/14 01:08:58;;;;;;;22.58;3.10;;;8.70;99.90;;;;;;5046401;28;20490;-37
2023/03/14 01:11:32;;;;;;;22.17;3.20;;;9.10;99.90;;;;;;5066301;28;20071;-37
2023/03/14 01:13:58;;;;;;;18.17;3.38;;;9.30;99.90;;;;;;5066245;28;20040;-37
2023/03/14 01:16:28;;;;;;;19.90;3.67;;;8.80;99.90;;;;;;5066339;28;20074;-37
2023/03/14 01:18:54;;;;;;;14.45;4.72;;;9.50;99.90;;;;;;5065632;28;20048;-37
2023/03/14 01:21:24;;;;;;;13.02;3.10;;;9.40;99.90;;;;;;5066526;28;20685;-38
2023/03/14 01:23:52;;;;;;;16.83;2.83;;;9.50;99.90;;;;;;5066378;28;20383;-38
2023/03/14 01:26:20;;;;;;;13.57;3.70;;;9.00;99.90;;;;;;5065359;28;20040;-38
2023/03/14 01:28:47;;;;;;;19.73;4.20;;;9.50;99.90;;;;;;5065898;28;20036;-37
2023/03/14 01:31:13;;;;;;;14.02;4.00;;;9.50;99.90;;;;;;5065674;28;20070;-38
2023/03/14 01:33:40;;;;;;;18.42;5.07;;;9.60;99.90;;;;;;5065700;28;20052;-38
2023/03/14 01:36:07;;;;;;;13.57;4.47;;;9.50;99.90;;;;;;5065784;28;20047;-37
2023/03/14 01:38:35;;;;;;;16.30;3.63;;;9.10;99.90;;;;;;5065319;28;20497;-38
2023/03/14 01:41:01;;;;;;;14.63;3.55;;;9.20;99.90;;;;;;5065677;28;20117;-37
2023/03/14 01:43:28;;;;;;;15.35;3.35;;;9.70;99.90;;;;;;5066094;28;20149;-37
2023/03/14 01:46:06;;;;;;;16.75;2.92;;;9.80;99.90;;;;;;5066469;28;20085;-38
2023/03/14 01:48:46;;;;;;;18.33;3.90;;;9.90;99.90;;;;;;5066380;28;20051;-38
2023/03/14 01:51:20;;;;;;;18.42;3.63;;;9.30;99.90;;;;;;5065929;28;20043;-37
2023/03/14 01:53:49;;;;;;;20.70;4.45;;;9.40;99.90;;;;;;5066320;28;20472;-37
2023/03/14 01:56:17;;;;;;;18.17;2.97;;;9.70;99.90;;;;;;5065799;28;20079;-38
2023/03/14 01:58:47;;;;;;;12.45;2.60;;;9.90;99.90;;;;;;5065459;28;20051;-38
2023/03/14 02:01:16;;;;;;;12.88;2.28;;;9.60;99.90;;;;;;5065145;28;20072;-38
2023/03/14 02:03:52;;;;;;;11.75;3.17;;;10.00;99.90;;;;;;5065486;28;20079;-38
2023/03/14 02:06:20;;;;;;;13.73;2.40;;;10.10;99.90;;;;;;5065191;28;20374;-38
2023/03/14 02:08:49;;;;;;;15.45;2.50;;;10.20;99.90;;;;;;5065378;28;20079;-37
2023/03/14 02:11:16;;;;;;;11.48;2.30;;;10.20;99.90;;;;;;5046870;28;20532;-38
2023/03/14 02:13:43;;;;;;;16.80;2.08;;;10.30;99.90;;;;;;5065153;28;20079;-38
2023/03/14 02:16:09;;;;;;;14.18;1.77;;;9.90;99.90;;;;;;5065465;28;20047;-37
2023/03/14 02:18:35;;;;;;;15.93;2.50;;;9.60;99.90;;;;;;5065413;28;20044;-38
2023/03/14 02:21:04;;;;;;;16.02;2.47;;;10.00;99.90;;;;;;5065057;28;20102;-38
2023/03/14 02:23:39;;;;;;;10.48;1.52;;;9.50;99.90;;;;;;5065352;28;20071;-38
2023/03/14 02:26:12;;;;;;;8.23;1.60;;;9.60;99.90;;;;;;5065507;28;20775;-37
2023/03/14 02:28:38;;;;;;;9.65;2.00;;;10.10;99.90;;;;;;5067032;28;20087;-37
2023/03/14 02:31:04;;;;;;;9.15;2.33;;;10.00;99.90;;;;;;5069411;28;20855;-38
2023/03/14 02:33:30;;;;;;;17.48;2.78;;;9.60;99.90;;;;;;5069422;28;20043;-38
2023/03/14 02:36:09;;;;;;;16.17;2.92;;;9.60;99.90;;;;;;5069775;28;20127;-38
2023/03/14 02:38:55;;;;;;;15.00;1.92;;;9.80;99.90;;;;;;5069639;28;20105;-37
2023/03/14 02:41:21;;;;;;;12.73;2.42;;;9.40;99.90;;;;;;5069295;28;20170;-38
2023/03/14 02:43:47;;;;;;;12.32;1.90;;;9.50;99.90;;;;;;5069524;28;20045;-38
2023/03/14 02:46:19;;;;;;;14.10;2.45;;;10.00;99.90;;;;;;5068642;28;20061;-37
2023/03/14 02:49:01;;;;;;;14.30;3.60;;;9.30;99.90;;;;;;5068427;28;20490;-38
2023/03/14 02:51:28;;;;;;;16.17;2.28;;;9.60;99.90;;;;;;5068588;28;20044;-38
2023/03/14 02:53:54;;;;;;;13.57;2.22;;;9.60;99.90;;;;;;5068430;28;20158;-37
2023/03/14 02:56:20;;;;;;;12.98;2.33;;;9.60;99.90;;;;;;5067440;28;20223;-38
2023/03/14 02:58:45;;;;;;;11.70;3.10;;;9.50;99.90;;;;;;5068344;28;20043;-38
2023/03/14 03:01:11;;;;;;;15.10;2.88;;;9.60;99.90;;;;;;5068603;28;20102;-38
2023/03/14 03:03:37;;;;;;;13.65;3.30;;;9.50;99.90;;;;;;5068687;28;20032;-38
2023/03/14 03:06:03;;;;;;;14.35;3.25;;;9.40;99.90;;;;;;5068914;28;20047;-37
2023/03/14 03:08:29;;;;;;;16.02;3.35;;;9.10;99.90;;;;;;5068449;28;20048;-38
2023/03/14 03:10:56;;;;;;;12.40;2.92;;;9.50;99.90;;;;;;5068713;28;20055;-37
2023/03/14 03:13:22;;;;;;;10.63;4.25;;;9.60;99.90;;;;;;5067626;28;20044;-38
2023/03/14 03:15:48;;;;;;;16.40;3.60;;;9.60;99.90;;;;;;5068594;28;20040;-37
2023/03/14 03:18:13;;;;;;;13.10;2.92;;;9.70;99.90;;;;;;5068004;28;20044;-37
2023/03/14 03:20:39;;;;;;;8.38;2.42;;;9.60;99.90;;;;;;5068629;28;20041;-37
2023/03/14 03:23:05;;;;;;;8.40;2.13;;;10.00;99.90;;;;;;5068412;28;20676;-38
2023/03/14 03:25:30;;;;;;;8.27;2.30;;;9.30;99.90;;;;;;5068567;28;20731;-38
2023/03/14 03:27:56;;;;;;;12.30;2.60;;;9.80;99.90;;;;;;5068855;28;20048;-37
2023/03/14 03:30:22;;;;;;;10.40;1.52;;;9.80;99.90;;;;;;5068740;28;20052;-38
2023/03/14 03:32:48;;;;;;;9.98;2.22;;;9.30;99.90;;;;;;5068269;28;20036;-37
2023/03/14 03:35:13;;;;;;;6.85;1.83;;;9.80;99.90;;;;;;5068218;28;20036;-37
2023/03/14 03:37:39;;;;;;;6.28;1.38;;;9.80;99.90;;;;;;5068512;28;20387;-37
2023/03/14 03:40:06;;;;;;;14.05;3.22;;;9.80;99.90;;;;;;5068181;28;20101;-38
2023/03/14 03:42:33;;;;;;;14.63;2.70;;;9.30;99.90;;;;;;5067273;28;20072;-38
2023/03/14 03:45:00;;;;;;;8.90;2.47;;;9.70;99.90;;;;;;5067698;28;20131;-37
2023/03/14 03:47:26;;;;;;;13.55;3.20;;;9.70;99.90;;;;;;5068118;28;20051;-38
2023/03/14 03:49:52;;;;;;;8.88;1.98;;;9.60;99.90;;;;;;5068242;28;20758;-38
2023/03/14 03:52:18;;;;;;;11.48;2.03;;;9.30;99.90;;;;;;5067731;28;20036;-37
2023/03/14 03:54:43;;;;;;;10.20;2.28;;;9.60;99.90;;;;;;5068116;28;20098;-38
2023/03/14 03:57:09;;;;;;;13.98;3.05;;;9.90;99.90;;;;;;5067724;28;20056;-38
2023/03/14 03:59:35;;;;;;;11.25;2.83;;;9.80;99.90;;;;;;5067690;28;20032;-38
2023/03/14 04:02:00;;;;;;;10.52;2.95;;;9.70;99.90;;;;;;5068025;28;20067;-37
2023/03/14 04:04:26;;;;;;;10.93;2.80;;;9.70;99.90;;;;;;5067790;28;21147;-38
2023/03/14 04:06:52;;;;;;;13.63;2.35;;;9.60;99.90;;;;;;5067957;28;20048;-38
2023/03/14 04:09:17;;;;;;;12.02;3.65;;;9.50;99.90;;;;;;5068192;28;20153;-37
2023/03/14 04:11:43;;;;;;;8.75;2.88;;;9.60;99.90;;;;;;5067828;28;20175;-38
2023/03/14 04:14:09;;;;;;;8.60;2.60;;;9.40;99.90;;;;;;5067709;28;20029;-38
2023/03/14 04:16:35;;;;;;;9.00;2.88;;;9.10;99.90;;;;;;5067707;28;20062;-37
2023/03/14 04:19:03;;;;;;;10.77;3.17;;;9.40;99.90;;;;;;5067708;28;20796;-37
2023/03/14 04:21:29;;;;;;;11.35;3.35;;;9.60;99.90;;;;;;5067597;28;20076;-37
2023/03/14 04:23:54;;;;;;;11.30;3.08;;;9.10;99.90;;;;;;5067917;28;20461;-38
2023/03/14 04:26:21;;;;;;;12.80;3.28;;;9.40;99.90;;;;;;5067754;28;20467;-37
2023/03/14 04:28:46;;;;;;;10.63;3.25;;;9.10;99.90;;;;;;5067725;28;20053;-37
2023/03/14 04:31:18;;;;;;;13.30;3.38;;;9.00;99.90;;;;;;5068195;28;20051;-37
2023/03/14 04:33:44;;;;;;;15.23;3.35;;;9.40;99.90;;;;;;5067786;28;20105;-38
2023/03/14 04:36:10;;;;;;;12.45;3.35;;;8.90;99.90;;;;;;5067561;28;20039;-38
2023/03/14 04:38:35;;;;;;;14.82;3.83;;;8.50;99.90;;;;;;5066869;28;20043;-38
2023/03/14 04:41:01;;;;;;;10.95;4.28;;;8.90;99.90;;;;;;5066888;28;20152;-37
2023/03/14 04:43:27;;;;;;;14.35;2.78;;;9.00;99.90;;;;;;5048933;28;20729;-38
2023/03/14 04:45:57;;;;;;;14.73;3.10;;;8.80;99.90;;;;;;5066904;28;20054;-37
2023/03/14 04:48:24;;;;;;;12.60;3.95;;;8.70;99.90;;;;;;5066477;28;20132;-37
2023/03/14 04:50:50;;;;;;;9.27;2.92;;;8.90;99.90;;;;;;5066781;28;20040;-37
2023/03/14 04:53:16;;;;;;;11.30;2.35;;;8.70;99.90;;;;;;5067496;28;20520;-39
2023/03/14 04:55:46;;;;;;;13.02;3.08;;;8.70;99.90;;;;;;5066701;28;20086;-37
2023/03/14 04:58:12;;;;;;;10.07;3.05;;;8.70;99.90;;;;;;5067028;28;20048;-37
2023/03/14 05:00:38;;;;;;;13.27;3.50;;;8.70;99.90;;;;;;5066990;28;20367;-37
2023/03/14 05:03:03;;;;;;;8.98;2.90;;;8.70;99.90;;;;;;5067053;28;20111;-38
2023/03/14 05:05:29;;;;;;;8.93;2.42;;;8.30;99.90;;;;;;5067051;28;20097;-37
2023/03/14 05:07:55;;;;;;;11.07;3.08;;;9.20;99.90;;;;;;5067247;28;20044;-54
2023/03/14 05:10:20;;;;;;;14.43;3.72;;;8.80;99.90;;;;;;5059300;28;20131;-44
2023/03/14 05:12:46;;;;;;;11.35;3.28;;;8.20;99.90;;;;;;5042692;28;20802;-44
2023/03/14 05:15:12;;;;;;;13.20;3.10;;;8.80;99.90;;;;;;5064781;28;20044;-44
2023/03/14 05:17:37;;;;;;;9.25;3.22;;;8.60;99.90;;;;;;5066158;28;20615;-42
2023/03/14 05:20:12;;;;;;;9.30;3.35;;;8.70;99.90;;;;;;5065477;28;20049;-43
2023/03/14 05:22:39;;;;;;;14.93;4.50;;;8.20;99.90;;;;;;5065425;28;20490;-41
2023/03/14 05:25:05;;;;;;;11.45;4.47;;;9.00;99.90;;;;;;5065721;28;20051;-40
2023/03/14 05:27:30;;;;;;;15.85;3.83;;;8.10;99.90;;;;;;5065453;28;20040;-42
2023/03/14 05:29:56;;;;;;;14.43;5.00;;;8.50;99.90;;;;;;5065496;28;20043;-42
2023/03/14 05:32:22;;;;;;;13.80;4.38;;;9.70;99.90;;;;;;5066176;28;20074;-45
2023/03/14 05:34:47;;;;;;;10.57;4.32;;;8.50;99.90;;;;;;5066792;28;20077;-43
2023/03/14 05:37:13;;;;;;;24.20;8.07;;;8.60;99.90;;;;;;5066843;28;20859;-44
2023/03/14 05:39:39;;;;;;;10.50;4.55;;;8.50;99.90;;;;;;5066358;28;20051;-43
2023/03/14 05:42:04;;;;;;;22.77;5.60;;;8.80;99.90;;;;;;5067130;28;20527;-44
2023/03/14 05:44:30;;;;;;;15.88;5.05;;;8.50;99.90;;;;;;5066830;28;20410;-43
2023/03/14 05:46:56;;;;;;;16.65;5.55;;;8.40;99.90;;;;;;5066628;28;20048;-44
2023/03/14 05:49:21;;;;;;;17.73;6.25;;;8.60;99.90;;;;;;5067191;28;20040;-43
2023/03/14 05:51:47;;;;;;;14.25;5.00;;;8.10;99.90;;;;;;5066812;28;20072;-43
2023/03/14 05:54:13;;;;;;;16.88;5.22;;;8.80;99.90;;;;;;5066930;28;20543;-43
2023/03/14 05:56:38;;;;;;;15.68;5.47;;;8.00;99.90;;;;;;5066012;28;20075;-44
2023/03/14 05:59:04;;;;;;;20.23;5.90;;;8.90;99.90;;;;;;5065980;28;20087;-43
2023/03/14 06:01:30;;;;;;;14.93;4.45;;;8.40;99.90;;;;;;5065938;28;20041;-43
2023/03/14 06:03:56;;;;;;;16.15;4.80;;;8.60;99.90;;;;;;5064994;28;20202;-43
2023/03/14 06:06:21;;;;;;;14.57;5.55;;;8.40;99.90;;;;;;5066038;28;20111;-43
2023/03/14 06:08:47;;;;;;;16.05;5.75;;;8.70;99.90;;;;;;5066085;28;20055;-43
2023/03/14 06:11:13;;;;;;;19.83;5.63;;;8.10;99.90;;;;;;5065686;28;20041;-43
2023/03/14 06:13:38;;;;;;;18.88;6.00;;;8.30;99.90;;;;;;5064910;28;20124;-43
2023/03/14 06:16:04;;;;;;;16.20;4.95;;;8.30;99.90;;;;;;5066225;28;20079;-44
2023/03/14 06:18:30;;;;;;;14.38;4.93;;;8.00;99.90;;;;;;5066070;28;20080;-43
2023/03/14 06:20:56;;;;;;;20.05;5.00;;;8.70;99.90;;;;;;5065824;28;20075;-43
2023/03/14 06:23:23;;;;;;;15.82;4.95;;;8.60;99.90;;;;;;5066310;28;20036;-44
2023/03/14 06:25:49;;;;;;;19.77;5.55;;;8.40;99.90;;;;;;5065951;28;20080;-43
2023/03/14 06:28:14;;;;;;;11.73;4.82;;;8.00;99.90;;;;;;5066181;28;20049;-43
2023/03/14 06:30:40;;;;;;;12.98;4.40;;;8.60;99.90;;;;;;5065891;28;20748;-43
2023/03/14 06:33:06;;;;;;;10.30;3.40;;;8.70;99.90;;;;;;5047832;28;20478;-43
2023/03/14 06:35:31;;;;;;;11.57;3.67;;;8.00;99.90;;;;;;5066220;28;20087;-43
2023/03/14 06:37:57;;;;;;;9.48;3.05;;;8.40;99.90;;;;;;5066183;28;20064;-42
2023/03/14 06:40:23;;;;;;;9.25;2.08;;;8.00;99.90;;;;;;5066115;28;20048;-42
2023/03/14 06:42:49;;;;;;;10.60;3.30;;;8.40;99.90;;;;;;5065446;28;20084;-42
2023/03/14 06:45:15;;;;;;;12.05;3.22;;;8.70;99.90;;;;;;5047663;28;20088;-44
2023/03/14 06:47:41;;;;;;;8.85;4.03;;;8.50;99.90;;;;;;5065148;28;20052;-44
2023/03/14 06:50:07;;;;;;;8.07;2.92;;;8.70;99.90;;;;;;5064924;28;20044;-43
2023/03/14 06:52:33;;;;;;;8.50;2.80;;;8.00;99.90;;;;;;5064574;28;20572;-42
2023/03/14 06:54:59;;;;;;;8.18;2.80;;;8.50;99.90;;;;;;5065027;28;20076;-43
2023/03/14 06:57:25;;;;;;;6.40;2.88;;;8.60;99.90;;;;;;5064969;28;20040;-43
2023/03/14 06:59:50;;;;;;;12.30;3.33;;;8.60;99.90;;;;;;5064688;28;20128;-42
2023/03/14 07:02:16;;;;;;;11.43;2.97;;;8.80;99.90;;;;;;5065382;28;20490;-44
2023/03/14 07:04:42;;;;;;;11.13;3.75;;;8.50;99.90;;;;;;5065309;28;20119;-44
2023/03/14 07:07:07;;;;;;;7.15;2.72;;;8.70;99.90;;;;;;5065231;28;20060;-42
2023/03/14 07:09:34;;;;;;;8.48;3.35;;;8.40;99.90;;;;;;5064935;28;20037;-43
2023/03/14 07:12:00;;;;;;;11.18;3.22;;;8.00;99.90;;;;;;5064945;28;20515;-44
2023/03/14 07:14:26;;;;;;;12.35;2.92;;;9.10;99.90;;;;;;5066113;28;20045;-45
2023/03/14 07:16:51;;;;;;;13.30;3.25;;;8.20;99.90;;;;;;5068931;28;20044;-43
2023/03/14 07:19:17;;;;;;;10.23;2.45;;;8.30;99.90;;;;;;5068942;28;20055;-43
2023/03/14 07:21:43;;;;;;;8.02;1.42;;;8.10;99.90;;;;;;5069066;28;20627;-43
2023/03/14 07:24:09;;;;;;;6.20;0.32;;;8.30;99.90;;;;;;5069242;28;20067;-42
2023/03/14 07:26:35;;;;;;;11.48;0.50;;;8.80;99.90;;;;;;5050742;28;20387;-43
2023/03/14 07:29:03;;;;;;;6.53;0.50;;;8.00;99.90;;;;;;5068392;28;20055;-43
2023/03/14 07:31:29;;;;;;;18.02;1.30;;;7.70;99.90;;;;;;5068042;28;20378;-42
2023/03/14 07:33:54;;;;;;;10.45;1.00;;;7.30;99.90;;;;;;5068086;28;20044;-43
2023/03/14 07:36:20;;;;;;;13.05;0.80;;;7.50;99.90;;;;;;5050495;28;20049;-43
2023/03/14 07:38:46;;;;;;;8.77;0.40;;;7.10;99.90;;;;;;5068315;28;20053;-45
2023/03/14 07:41:11;;;;;;;11.57;0.60;;;6.90;99.90;;;;;;5069044;28;20545;-44
2023/03/14 07:43:37;;;;;;;8.77;0.60;;;6.90;99.90;;;;;;5068973;28;20529;-42
2023/03/14 07:46:03;;;;;;;8.25;0.50;;;7.40;99.90;;;;;;5068116;28;20516;-43
2023/03/14 07:48:29;;;;;;;13.50;0.50;;;6.00;99.90;;;;;;5068531;28;20044;-43
2023/03/14 07:50:55;;;;;;;4.15;0.22;;;6.30;99.90;;;;;;5068333;28;20047;-43
2023/03/14 07:53:22;;;;;;;7.35;1.20;;;5.90;99.90;;;;;;5068509;28;20109;-43
2023/03/14 07:55:48;;;;;;;7.07;0.35;;;5.80;99.90;;;;;;5067961;28;20528;-43
2023/03/14 07:58:14;;;;;;;7.65;0.45;;;5.50;99.90;;;;;;5068752;28;20123;-42
2023/03/14 08:00:40;;;;;;;9.07;0.30;;;5.30;99.90;;;;;;5068796;28;20073;-45
2023/03/14 08:03:06;;;;;;;8.52;0.32;;;5.10;99.90;;;;;;5067903;28;20041;-43
2023/03/14 08:05:35;;;;;;;6.25;0.70;;;4.90;99.90;;;;;;5050188;28;20082;-43
2023/03/14 08:08:00;;;;;;;7.38;0.40;;;5.20;99.90;;;;;;5068130;28;20060;-43
2023/03/14 08:10:28;;;;;;;6.30;0.20;;;4.90;99.90;;;;;;5068379;28;20040;-43
2023/03/14 08:12:55;;;;;;;7.13;0.25;;;5.50;99.90;;;;;;5068152;28;20147;-43
2023/03/14 08:15:21;;;;;;;2.45;0.17;;;4.70;99.90;;;;;;5049684;28;20059;-42
2023/03/14 08:17:50;;;;;;;3.05;0.10;;;4.60;99.90;;;;;;5049880;28;20128;-43
2023/03/14 08:20:21;;;;;;;3.65;0.40;;;4.60;99.90;;;;;;5033704;28;20060;-42
2023/03/14 08:22:47;;;;;;;5.25;0.17;;;4.60;99.90;;;;;;5049841;28;20054;-43
2023/03/14 08:25:13;;;;;;;3.28;0.00;;;4.60;99.90;;;;;;5067677;28;20036;-43
2023/03/14 08:27:40;;;;;;;4.25;0.10;;;4.60;99.90;;;;;;5067374;28;20881;-44
2023/03/14 08:30:09;;;;;;;8.63;0.30;;;5.00;99.90;;;;;;5067823;28;20049;-43
2023/03/14 08:32:35;;;;;;;5.60;0.20;;;4.70;99.90;;;;;;5067426;28;20075;-43
2023/03/14 08:35:01;;;;;;;7.18;0.10;;;4.90;99.90;;;;;;5067544;28;20044;-43
2023/03/14 08:37:27;;;;;;;6.70;0.30;;;6.00;99.90;;;;;;5067348;28;20036;-44
2023/03/14 08:39:53;;;;;;;2.88;0.20;;;5.20;99.90;;;;;;5067760;28;20037;-42
2023/03/14 08:42:18;;;;;;;1.67;0.10;;;5.00;99.90;;;;;;5068113;28;20032;-45
2023/03/14 08:44:44;;;;;;;3.45;0.17;;;6.00;99.90;;;;;;5066434;28;20485;-43
2023/03/14 08:47:10;;;;;;;6.43;0.25;;;5.10;99.90;;;;;;5047217;28;20053;-43
2023/03/14 08:49:36;;;;;;;1.73;0.08;;;5.00;99.90;;;;;;5047451;28;20047;-43
2023/03/14 08:52:03;;;;;;;6.78;0.22;;;5.20;99.90;;;;;;5046947;28;20037;-44
2023/03/14 08:54:29;;;;;;;3.25;0.77;;;5.00;99.90;;;;;;5047586;28;20372;-44
2023/03/14 08:56:55;;;;;;;5.00;0.28;;;5.20;99.90;;;;;;5047376;28;20052;-44
2023/03/14 08:59:21;;;;;;;4.03;0.30;;;5.10;99.90;;;;;;5047397;28;20094;-43
2023/03/14 09:01:47;;;;;;;5.35;0.20;;;5.20;99.90;;;;;;5029355;28;20116;-43
2023/03/14 09:04:13;;;;;;;5.53;0.38;;;5.30;99.90;;;;;;5047620;28;20128;-43
2023/03/14 09:06:39;;;;;;;7.88;0.20;;;5.30;99.90;;;;;;5047324;28;20120;-44
2023/03/14 09:09:05;;;;;;;9.00;1.25;;;5.40;99.90;;;;;;5046939;28;20044;-43
2023/03/14 09:11:31;;;;;;;5.82;0.40;;;5.50;99.90;;;;;;5045326;28;20049;-42
2023/03/14 09:13:56;;;;;;;9.50;0.70;;;6.30;99.90;;;;;;5044829;28;20040;-43
2023/03/14 09:16:22;;;;;;;9.23;0.30;;;5.80;99.90;;;;;;5044897;28;20040;-42
2023/03/14 09:18:48;;;;;;;9.15;0.52;;;5.90;99.90;;;;;;5045327;28;20041;-44
2023/03/14 09:21:14;;;;;;;8.13;0.40;;;5.80;99.90;;;;;;5046111;28;20037;-44
2023/03/14 09:23:40;;;;;;;7.60;0.73;;;6.90;99.90;;;;;;5046050;28;20053;-44
2023/03/14 09:26:07;;;;;;;8.43;1.60;;;5.90;99.90;;;;;;5044489;28;20047;-44
2023/03/14 09:28:33;;;;;;;11.32;0.60;;;6.60;99.90;;;;;;5046004;28;20049;-44
2023/03/14 09:31:05;;;;;;;11.27;0.90;;;7.10;99.90;;;;;;5045645;28;20040;-44
2023/03/14 09:33:31;;;;;;;8.70;0.85;;;6.20;99.90;;;;;;5046425;28;20878;-44
2023/03/14 09:35:59;;;;;;;12.25;0.98;;;7.00;99.90;;;;;;5046486;28;20083;-44
2023/03/14 09:38:26;;;;;;;15.95;1.58;;;6.70;99.90;;;;;;5045417;28;20683;-45
2023/03/14 09:40:53;;;;;;;17.02;1.48;;;6.80;99.90;;;;;;5046755;28;20041;-42
2023/03/14 09:43:21;;;;;;;18.80;1.73;;;7.00;99.90;;;;;;5046142;28;20126;-43
2023/03/14 09:45:50;;;;;;;14.35;2.03;;;7.30;99.90;;;;;;5055847;28;20375;-42
2023/03/14 09:48:21;;;;;;;22.33;2.83;;;7.60;99.90;;;;;;5065974;28;20044;-45
2023/03/14 09:50:50;;;;;;;19.90;3.60;;;7.90;99.90;;;;;;5066175;28;20191;-43
2023/03/14 09:53:42;;;;;;;16.40;1.85;;;8.00;99.90;;;;;;5065253;28;20044;-43
2023/03/14 09:56:15;;;;;;;20.95;1.90;;;8.10;99.90;;;;;;5047999;28;20142;-43
2023/03/14 09:58:44;;;;;;;27.08;1.73;;;7.70;99.90;;;;;;5065474;28;20044;-43
2023/03/14 10:01:15;;;;;;;18.58;1.67;;;7.50;99.90;;;;;;5064908;28;20041;-44
2023/03/14 10:03:44;;;;;;;17.20;2.38;;;7.30;99.90;;;;;;5065243;28;20070;-43
2023/03/14 10:06:13;;;;;;;16.50;1.30;;;7.20;99.90;;;;;;5057170;28;20047;-43
2023/03/14 10:08:44;;;;;;;20.10;1.77;;;7.10;99.90;;;;;;5065155;28;20043;-43
2023/03/14 10:11:18;;;;;;;20.67;2.03;;;7.40;99.90;;;;;;5056760;28;20460;-42
2023/03/14 10:14:04;;;;;;;14.45;1.67;;;6.70;99.90;;;;;;5046923;28;20170;-44
2023/03/14 10:16:32;;;;;;;19.30;2.20;;;6.80;99.90;;;;;;5064939;28;20056;-42
2023/03/14 10:19:11;;;;;;;20.38;2.00;;;6.70;99.90;;;;;;5064846;28;20127;-42
2023/03/14 10:21:42;;;;;;;17.75;2.80;;;6.80;99.90;;;;;;5063289;28;20072;-44
2023/03/14 10:24:20;;;;;;;22.98;4.30;;;6.60;99.90;;;;;;5065117;28;20064;-42
2023/03/14 10:26:53;;;;;;;21.08;1.95;;;6.70;99.90;;;;;;5065096;28;20036;-43
2023/03/14 10:29:18;;;;;;;25.50;2.20;;;7.10;99.90;;;;;;5064939;28;20105;-43
2023/03/14 10:31:52;;;;;;;19.98;2.72;;;6.50;99.90;;;;;;5064148;28;20370;-43
2023/03/14 10:34:27;;;;;;;14.55;2.17;;;6.40;99.90;;;;;;5064590;28;20048;-44
2023/03/14 10:37:23;;;;;;;20.30;3.17;;;6.50;99.90;;;;;;5064519;28;20729;-43
2023/03/14 10:39:54;;;;;;;18.70;2.25;;;6.40;99.90;;;;;;5064933;28;20075;-45
2023/03/14 10:42:29;;;;;;;21.83;2.58;;;6.20;99.90;;;;;;5064988;28;20049;-43
2023/03/14 10:45:22;;;;;;;24.85;2.63;;;6.30;99.90;;;;;;5063782;28;20450;-43
2023/03/14 10:47:51;;;;;;;23.25;1.85;;;6.30;99.90;;;;;;5044224;28;20479;-44
2023/03/14 10:50:31;;;;;;;17.92;2.35;;;8.00;99.90;;;;;;5047048;28;20041;-44
2023/03/14 10:53:00;;;;;;;19.23;1.80;;;6.20;99.90;;;;;;5048655;28;20718;-44
2023/03/14 10:55:26;;;;;;;15.65;1.83;;;6.20;99.90;;;;;;5048214;28;20049;-43
2023/03/14 10:57:52;;;;;;;20.05;1.75;;;6.20;99.90;;;;;;5048451;28;20106;-44
2023/03/14 11:00:23;;;;;;;18.95;2.95;;;5.30;99.90;;;;;;5030400;28;20084;-43
2023/03/14 11:03:11;;;;;;;21.23;1.95;;;6.50;99.90;;;;;;5048502;28;20106;-43
2023/03/14 11:05:55;;;;;;;13.75;1.90;;;6.70;99.90;;;;;;5048158;28;20048;-42
2023/03/14 11:08:25;;;;;;;14.63;1.48;;;6.60;99.90;;;;;;5048132;28;20103;-43
2023/03/14 11:11:02;;;;;;;14.85;1.58;;;6.80;99.90;;;;;;5048707;28;20506;-44
2023/03/14 11:13:43;;;;;;;10.55;0.93;;;7.60;99.90;;;;;;5049083;28;20487;-42
2023/03/14 11:16:22;;;;;;;16.95;1.17;;;6.80;99.90;;;;;;5049597;28;20123;-42
2023/03/14 11:19:08;;;;;;;12.55;1.42;;;6.80;99.90;;;;;;5048855;28;20049;-44
2023/03/14 11:21:52;;;;;;;14.57;1.30;;;7.80;99.90;;;;;;4997369;28;20148;-43
2023/03/14 11:24:52;;;;;;;15.73;1.70;;;8.30;99.90;;;;;;5049383;28;20048;-43
2023/03/14 11:27:29;;;;;;;16.80;2.53;;;6.90;99.90;;;;;;5049059;28;20475;-43
2023/03/14 11:30:01;;;;;;;11.45;1.75;;;6.90;99.90;;;;;;5049164;28;20099;-44
2023/03/14 11:32:41;;;;;;;14.00;1.48;;;8.00;99.90;;;;;;5048023;28;20621;-42
2023/03/14 11:35:22;;;;;;;14.07;3.50;;;6.70;99.90;;;;;;5048900;28;20124;-43
2023/03/14 11:38:00;;;;;;;14.70;1.10;;;6.50;99.90;;;;;;5048202;28;20483;-43
2023/03/14 11:40:28;;;;;;;8.95;1.13;;;6.60;99.90;;;;;;5048246;28;20037;-43
2023/03/14 11:43:19;;;;;;;10.25;0.50;;;6.30;99.90;;;;;;5048671;28;20041;-43
2023/03/14 11:45:49;;;;;;;6.38;0.70;;;7.40;99.90;;;;;;5055605;28;20060;-44
2023/03/14 11:48:37;;;;;;;7.93;0.70;;;5.90;99.90;;;;;;5068336;28;20079;-44
2023/03/14 11:51:11;;;;;;;10.98;1.33;;;6.20;99.90;;;;;;5068391;28;20681;-44
2023/03/14 11:53:36;;;;;;;13.48;1.17;;;7.00;99.90;;;;;;5068648;28;20044;-43
2023/03/14 11:56:02;;;;;;;8.63;0.60;;;7.70;99.90;;;;;;5068889;28;20501;-43
2023/03/14 11:58:37;;;;;;;11.50;0.73;;;6.50;99.90;;;;;;5068540;28;20048;-43
2023/03/14 12:01:10;;;;;;;6.68;0.57;;;7.50;99.90;;;;;;5066563;28;20048;-43
2023/03/14 12:03:45;;;;;;;9.05;0.85;;;7.40;99.90;;;;;;5066870;28;20094;-43
2023/03/14 12:06:26;;;;;;;8.27;0.43;;;5.80;99.90;;;;;;5059786;28;20052;-41
2023/03/14 12:09:06;;;;;;;7.68;0.68;;;5.90;99.90;;;;;;5049423;28;20098;-40
2023/03/14 12:11:41;;;;;;;7.03;0.50;;;5.90;99.90;;;;;;5067054;28;20044;-41
2023/03/14 12:14:23;;;;;;;14.38;2.00;;;5.80;99.90;;;;;;5067734;28;20048;-42
2023/03/14 12:16:56;;;;;;;4.38;0.30;;;5.70;99.90;;;;;;5068123;28;20150;-41
2023/03/14 12:19:22;;;;;;;6.00;0.82;;;5.80;99.90;;;;;;5067894;28;20051;-41
2023/03/14 12:21:58;;;;;;;9.70;0.57;;;5.40;99.90;;;;;;5067615;28;20260;-41
2023/03/14 12:24:31;;;;;;;7.18;0.65;;;5.60;99.90;;;;;;5067930;28;20440;-40
2023/03/14 12:26:59;;;;;;;5.32;0.60;;;5.20;99.90;;;;;;5068498;28;20193;-40
2023/03/14 12:29:25;;;;;;;9.65;0.50;;;5.20;99.90;;;;;;5067894;28;20079;-40
2023/03/14 12:32:23;;;;;;;9.15;0.90;;;5.10;99.90;;;;;;5050222;28;20084;-41
2023/03/14 12:34:49;;;;;;;8.48;0.88;;;5.50;99.90;;;;;;5061436;28;20052;-41
2023/03/14 12:37:23;;;;;;;11.20;1.02;;;5.40;99.90;;;;;;5067800;28;20044;-40
2023/03/14 12:40:07;;;;;;;7.72;0.80;;;5.70;99.90;;;;;;5067862;28;20047;-41
2023/03/14 12:42:58;;;;;;;12.25;1.88;;;6.20;99.90;;;;;;5067845;28;20151;-41
2023/03/14 12:45:29;;;;;;;9.02;1.00;;;6.40;99.90;;;;;;5063134;28;20065;-40
2023/03/14 12:48:11;;;;;;;7.03;0.52;;;6.60;99.90;;;;;;5047285;28;20844;-40
2023/03/14 12:51:02;;;;;;;11.47;1.00;;;6.70;99.90;;;;;;5047643;28;20131;-41
2023/03/14 12:53:39;;;;;;;7.53;0.80;;;6.60;99.90;;;;;;5048306;28;20118;-41
2023/03/14 12:56:16;;;;;;;11.10;1.10;;;6.90;99.90;;;;;;5048072;28;20048;-41
2023/03/14 12:59:05;;;;;;;10.50;0.73;;;6.90;99.90;;;;;;5047332;28;20080;-41